EDLV/NRN METAR and TAF weather

Enter ICAO airport designator
Station Type Date Time Source
EDLV METAR 2021/09/28 16:20 UTC NOAA

EDLV 281620Z 17005KT 9999 FEW040 18/10 Q1020


Station Type Date Time Source
EDLV Decoded METAR 2021/09/28 16:20 UTC NOAA

Niederrhein, Germany (EDLV) 51-36-09N 006-08-32E
Sep 28, 2021 - 12:20 PM EDT / 2021.09.28 1620 UTC
Wind: from the S (170 degrees) at 6 MPH (5 KT):0
Visibility: greater than 7 mile(s):0
Sky conditions: mostly clear
Temperature: 64 F (18 C)
Dew Point: 50 F (10 C)
Relative Humidity: 59%
Pressure (altimeter): 30.12 in. Hg (1020 hPa)
ob: EDLV 281620Z 17005KT 9999 FEW040 18/10 Q1020
cycle: 16

Station Type Date Time Source
EDLV TAF 2021/09/28 12:27 UTC NOAA

TAF EDLV 281100Z 2812/2912 20006KT 9999 FEW030
BECMG 2815/2818 14006KT
TEMPO 2906/2909 RA
BECMG 2907/2910 22010KT
TEMPO 2910/2912 24015G30KT SHRA BKN025CB PROB30
TEMPO 2911/2912 27020G35KT 4500 TSRA

Example: see airport list